Time;durP1;ratioP1;P1;durP2;ratioP2;P2;SDS_P1;SDS_P2;PMS_P1;PMS_P2;Temp;Humidity;BMP_temperature;BMP_pressure;BME280_temperature;BME280_humidity;BME280_pressure;Samples;Min_cycle;Max_cycle;Signal;HPM_P1;HPM_P2
2023/06/09 00:01:11;;;;;;;;;;;11.50;99.90;;;;;;8334567;28;19908;-80
2023/06/09 00:05:12;;;;;;;;;;;11.20;99.90;;;;;;8340405;28;19909;-81
2023/06/09 00:09:13;;;;;;;;;;;11.10;99.90;;;;;;8328057;28;20350;-81
2023/06/09 00:13:15;;;;;;;;;;;11.40;99.90;;;;;;8347861;28;20532;-81
2023/06/09 00:17:16;;;;;;;;;;;11.40;99.90;;;;;;8336982;28;20432;-81
2023/06/09 00:21:17;;;;;;;;;;;11.20;99.90;;;;;;8327933;28;19913;-80
2023/06/09 00:25:21;;;;;;;;;;;10.90;99.90;;;;;;8333287;28;19912;-81
2023/06/09 00:29:22;;;;;;;;;;;10.90;99.90;;;;;;8334099;28;19951;-80
2023/06/09 00:33:22;;;;;;;;;;;10.70;99.90;;;;;;8366083;28;19913;-81
2023/06/09 00:37:23;;;;;;;;;;;10.80;99.90;;;;;;8353913;28;19913;-81
2023/06/09 00:41:23;;;;;;;;;;;10.90;99.90;;;;;;8341335;28;19999;-81
2023/06/09 00:45:23;;;;;;;;;;;11.20;99.90;;;;;;8329859;28;19909;-81
2023/06/09 00:49:24;;;;;;;;;;;10.90;99.90;;;;;;8322622;28;19917;-80
2023/06/09 00:53:26;;;;;;;;;;;10.50;99.90;;;;;;8328370;28;19919;-80
2023/06/09 00:57:32;;;;;;;;;;;10.20;99.90;;;;;;8369870;28;19913;-81
2023/06/09 01:01:33;;;;;;;;;;;10.20;99.90;;;;;;8319684;28;19921;-80
2023/06/09 01:05:36;;;;;;;;;;;10.20;99.90;;;;;;8328963;28;19982;-81
2023/06/09 01:09:45;;;;;;;;;;;10.20;99.90;;;;;;8333566;28;20300;-80
2023/06/09 01:13:45;;;;;;;;;;;10.40;99.90;;;;;;8344776;28;19913;-79
2023/06/09 01:17:48;;;;;;;;;;;10.30;99.90;;;;;;8333835;28;19920;-80
2023/06/09 01:21:51;;;;;;;;;;;10.20;99.90;;;;;;8324962;28;19924;-81
2023/06/09 01:25:52;;;;;;;;;;;10.40;99.90;;;;;;8343925;28;19909;-79
2023/06/09 01:29:53;;;;;;;;;;;10.50;99.90;;;;;;8325310;28;20284;-79
2023/06/09 01:33:53;;;;;;;;;;;10.30;99.90;;;;;;8324145;28;19917;-80
2023/06/09 01:37:54;;;;;;;;;;;9.90;99.90;;;;;;8329748;28;19917;-80
2023/06/09 01:41:55;;;;;;;;;;;9.70;99.90;;;;;;8320615;28;19913;-80
2023/06/09 01:45:55;;;;;;;;;;;9.60;99.90;;;;;;8353684;28;19935;-80
2023/06/09 01:50:01;;;;;;;;;;;9.50;99.90;;;;;;8318300;28;19920;-80
2023/06/09 01:54:08;;;;;;;;;;;9.50;99.90;;;;;;8353717;28;19919;-79
2023/06/09 01:58:29;;;;;;;;;;;9.70;99.90;;;;;;8348960;28;19917;-80
2023/06/09 02:02:31;;;;;;;;;;;9.60;99.90;;;;;;8350467;28;19913;-79
2023/06/09 02:06:33;;;;;;;;;;;9.40;99.90;;;;;;8362268;28;20365;-80
2023/06/09 02:10:33;;;;;;;;;;;9.30;99.90;;;;;;8322067;28;19996;-80
2023/06/09 02:14:34;;;;;;;;;;;9.20;99.90;;;;;;8337167;28;19920;-80
2023/06/09 02:18:34;;;;;;;;;;;9.10;99.90;;;;;;8326874;28;19921;-81
2023/06/09 02:22:35;;;;;;;;;;;9.00;99.90;;;;;;8334358;28;19979;-80
2023/06/09 02:26:36;;;;;;;;;;;8.80;99.90;;;;;;8329070;28;20485;-81
2023/06/09 02:30:36;;;;;;;;;;;8.70;99.90;;;;;;8330800;28;20004;-80
2023/06/09 02:34:37;;;;;;;;;;;8.70;99.90;;;;;;8336024;28;19919;-80
2023/06/09 02:38:38;;;;;;;;;;;8.70;99.90;;;;;;8343374;28;19917;-80
2023/06/09 02:42:38;;;;;;;;;;;8.60;99.90;;;;;;8351914;28;19921;-80
2023/06/09 02:46:40;;;;;;;;;;;8.60;99.90;;;;;;8343802;28;19919;-80
2023/06/09 02:50:40;;;;;;;;;;;8.70;99.90;;;;;;8325254;28;19967;-80
2023/06/09 02:54:41;;;;;;;;;;;8.50;99.90;;;;;;8351425;28;19913;-81
2023/06/09 02:58:41;;;;;;;;;;;8.40;99.90;;;;;;8331033;28;20381;-80
2023/06/09 03:02:42;;;;;;;;;;;8.30;99.90;;;;;;8331699;28;20000;-80
2023/06/09 03:06:43;;;;;;;;;;;8.50;99.90;;;;;;8355026;28;19913;-79
2023/06/09 03:10:43;;;;;;;;;;;8.60;99.90;;;;;;8345412;28;20478;-79
2023/06/09 03:14:44;;;;;;;;;;;8.60;99.90;;;;;;8348621;28;21343;-80
2023/06/09 03:18:46;;;;;;;;;;;8.60;99.90;;;;;;8324249;28;20361;-80
2023/06/09 03:22:47;;;;;;;;;;;8.60;99.90;;;;;;8330371;28;19920;-80
2023/06/09 03:26:47;;;;;;;;;;;8.70;99.90;;;;;;8352612;28;20066;-80
2023/06/09 03:30:48;;;;;;;;;;;8.70;99.90;;;;;;8323347;28;19916;-80
2023/06/09 03:34:48;;;;;;;;;;;8.70;99.90;;;;;;8337187;28;19916;-80
2023/06/09 03:38:48;;;;;;;;;;;8.60;99.90;;;;;;8349837;28;19996;-79
2023/06/09 03:42:49;;;;;;;;;;;8.70;99.90;;;;;;8326166;28;19917;-79
2023/06/09 03:46:49;;;;;;;;;;;8.70;99.90;;;;;;8329966;28;19917;-79
2023/06/09 03:50:50;;;;;;;;;;;9.00;99.90;;;;;;8339943;28;19912;-80
2023/06/09 03:54:50;;;;;;;;;;;9.20;99.90;;;;;;8350602;28;19935;-80
2023/06/09 03:58:53;;;;;;;;;;;9.50;99.90;;;;;;8352364;28;19913;-79
2023/06/09 04:02:53;;;;;;;;;;;9.70;99.90;;;;;;8327141;28;19920;-80
2023/06/09 04:06:56;;;;;;;;;;;10.20;99.90;;;;;;8354391;28;20015;-80
2023/06/09 04:10:56;;;;;;;;;;;10.60;99.90;;;;;;8351279;28;19916;-79
2023/06/09 04:14:57;;;;;;;;;;;11.10;99.90;;;;;;8330907;28;20284;-81
2023/06/09 04:18:57;;;;;;;;;;;11.20;99.90;;;;;;8340463;28;20316;-79
2023/06/09 04:22:58;;;;;;;;;;;11.70;99.90;;;;;;8322575;28;19917;-83
2023/06/09 04:27:00;;;;;;;;;;;12.40;99.90;;;;;;8346611;28;19913;-84
2023/06/09 04:31:00;;;;;;;;;;;13.00;99.90;;;;;;8345887;28;20439;-84
2023/06/09 04:35:02;;;;;;;;;;;13.80;99.90;;;;;;8370413;28;19943;-84
2023/06/09 04:39:03;;;;;;;;;;;14.70;99.90;;;;;;8377310;28;19996;-84
2023/06/09 04:43:05;;;;;;;;;;;15.10;99.90;;;;;;8342563;28;19913;-84
2023/06/09 04:47:05;;;;;;;;;;;15.80;99.90;;;;;;8340698;28;19913;-85
2023/06/09 04:51:07;;;;;;;;;;;15.70;99.90;;;;;;8339617;28;20373;-84
2023/06/09 04:55:08;;;;;;;;;;;16.80;99.90;;;;;;8352711;28;19975;-86
2023/06/09 04:59:12;;;;;;;;;;;16.70;99.90;;;;;;8332434;28;19938;-85
2023/06/09 05:03:13;;;;;;;;;;;17.60;99.90;;;;;;8342181;28;19921;-83
2023/06/09 05:07:14;;;;;;;;;;;18.30;99.90;;;;;;8365494;28;19943;-84
2023/06/09 05:11:14;;;;;;;;;;;18.30;99.90;;;;;;8332206;28;20271;-86
2023/06/09 05:15:15;;;;;;;;;;;18.70;99.90;;;;;;8338712;28;19913;-85
2023/06/09 05:19:15;;;;;;;;;;;19.90;99.90;;;;;;8344873;28;19924;-83
2023/06/09 05:23:17;;;;;;;;;;;21.20;99.90;;;;;;8344515;28;19925;-85
2023/06/09 05:27:18;;;;;;;;;;;20.10;99.90;;;;;;8351380;28;20347;-85
2023/06/09 05:31:18;;;;;;;;;;;20.60;99.90;;;;;;8353791;28;19998;-84
2023/06/09 05:35:19;;;;;;;;;;;21.50;99.90;;;;;;8345123;28;19971;-84
2023/06/09 05:39:19;;;;;;;;;;;22.20;99.90;;;;;;8344955;28;19927;-84
2023/06/09 05:43:20;;;;;;;;;;;22.10;99.90;;;;;;8339416;28;19917;-84
2023/06/09 05:47:20;;;;;;;;;;;22.60;99.90;;;;;;8352446;28;19980;-85
2023/06/09 05:51:21;;;;;;;;;;;22.80;99.90;;;;;;8348026;28;19936;-85
2023/06/09 05:55:21;;;;;;;;;;;22.60;99.90;;;;;;8344197;28;19913;-84
2023/06/09 05:59:23;;;;;;;;;;;23.20;99.90;;;;;;8358039;28;20362;-84
2023/06/09 06:03:23;;;;;;;;;;;23.30;99.90;;;;;;8355817;28;19919;-83
2023/06/09 06:07:23;;;;;;;;;;;23.50;99.90;;;;;;8353451;28;19916;-87
2023/06/09 06:11:25;;;;;;;;;;;23.60;99.90;;;;;;8348778;28;19948;-87
2023/06/09 06:15:25;;;;;;;;;;;24.40;99.90;;;;;;8346425;28;19917;-83
2023/06/09 06:19:26;;;;;;;;;;;24.70;99.90;;;;;;8336344;28;19974;-84
2023/06/09 06:23:27;;;;;;;;;;;24.30;99.90;;;;;;8342450;28;20381;-84
2023/06/09 06:27:28;;;;;;;;;;;24.60;99.90;;;;;;8327472;28;19924;-85
2023/06/09 06:31:29;;;;;;;;;;;25.20;99.90;;;;;;8320921;28;19909;-85
2023/06/09 06:35:29;;;;;;;;;;;24.90;99.90;;;;;;8328274;28;19909;-85
2023/06/09 06:39:30;;;;;;;;;;;25.40;99.90;;;;;;8332926;28;19983;-84
2023/06/09 06:43:30;;;;;;;;;;;25.80;99.90;;;;;;8340136;28;19913;-85
2023/06/09 06:47:30;;;;;;;;;;;25.50;99.90;;;;;;8334424;28;19944;-84
2023/06/09 06:51:31;;;;;;;;;;;25.20;99.90;;;;;;8335533;28;19913;-84
2023/06/09 06:55:32;;;;;;;;;;;25.10;99.90;;;;;;8330314;28;20335;-84
2023/06/09 06:59:32;;;;;;;;;;;25.20;99.90;;;;;;8343242;28;19971;-84
2023/06/09 07:03:35;;;;;;;;;;;25.50;99.90;;;;;;8335564;28;19932;-84
2023/06/09 07:07:36;;;;;;;;;;;25.80;99.90;;;;;;8345123;28;20119;-85
2023/06/09 07:11:37;;;;;;;;;;;26.10;99.90;;;;;;8361925;28;19913;-85
2023/06/09 07:15:38;;;;;;;;;;;25.50;99.90;;;;;;8331126;28;19913;-85
2023/06/09 07:19:38;;;;;;;;;;;25.70;99.90;;;;;;8343668;28;19970;-85
2023/06/09 07:23:39;;;;;;;;;;;26.50;99.90;;;;;;8345930;28;20400;-84
2023/06/09 07:27:39;;;;;;;;;;;26.80;99.40;;;;;;8339765;28;20015;-85
2023/06/09 07:31:40;;;;;;;;;;;26.90;99.90;;;;;;8345371;28;19924;-84
2023/06/09 07:35:40;;;;;;;;;;;26.90;99.40;;;;;;8333489;28;19913;-83
2023/06/09 07:39:41;;;;;;;;;;;26.80;98.40;;;;;;8341072;28;20149;-85
2023/06/09 07:43:42;;;;;;;;;;;27.30;99.40;;;;;;8345365;28;19962;-85
2023/06/09 07:47:43;;;;;;;;;;;27.50;97.20;;;;;;8335722;28;19928;-84
2023/06/09 07:51:46;;;;;;;;;;;26.80;97.40;;;;;;8341652;28;19908;-83
2023/06/09 07:55:46;;;;;;;;;;;26.10;98.90;;;;;;8344635;28;19963;-85
2023/06/09 07:59:47;;;;;;;;;;;26.20;98.50;;;;;;8331425;28;19913;-82
2023/06/09 08:03:47;;;;;;;;;;;26.40;96.30;;;;;;8335343;28;19913;-81
2023/06/09 08:07:47;;;;;;;;;;;26.70;98.20;;;;;;8330932;28;19909;-81
2023/06/09 08:11:48;;;;;;;;;;;26.80;99.60;;;;;;8330112;28;19920;-81
2023/06/09 08:15:48;;;;;;;;;;;26.30;97.70;;;;;;8325523;28;20027;-79
2023/06/09 08:19:49;;;;;;;;;;;26.00;98.70;;;;;;8333559;28;19921;-80
2023/06/09 08:23:50;;;;;;;;;;;25.70;99.90;;;;;;8339369;28;19932;-80
2023/06/09 08:27:50;;;;;;;;;;;25.70;99.90;;;;;;8320784;28;19925;-80
2023/06/09 08:31:51;;;;;;;;;;;26.20;98.10;;;;;;8345792;28;19982;-79
2023/06/09 08:35:51;;;;;;;;;;;25.70;99.00;;;;;;8332540;28;20470;-78
2023/06/09 08:39:54;;;;;;;;;;;25.50;99.90;;;;;;8327096;28;19928;-80
2023/06/09 08:43:55;;;;;;;;;;;25.40;99.60;;;;;;8337303;28;20309;-81
2023/06/09 08:47:58;;;;;;;;;;;25.20;99.60;;;;;;8330011;28;19912;-80
2023/06/09 08:51:59;;;;;;;;;;;25.30;99.90;;;;;;8322140;28;19968;-80
2023/06/09 08:56:00;;;;;;;;;;;26.30;99.90;;;;;;8331599;28;20433;-79
2023/06/09 09:00:03;;;;;;;;;;;26.20;99.90;;;;;;8339576;28;19928;-80
2023/06/09 09:04:03;;;;;;;;;;;25.90;99.40;;;;;;8331592;28;20292;-78
2023/06/09 09:08:04;;;;;;;;;;;26.10;99.90;;;;;;8329485;28;19913;-79
2023/06/09 09:12:05;;;;;;;;;;;26.60;99.90;;;;;;8333598;28;19981;-78
2023/06/09 09:16:10;;;;;;;;;;;26.20;97.70;;;;;;8349976;28;20332;-79
2023/06/09 09:20:11;;;;;;;;;;;25.70;99.70;;;;;;8357184;28;19913;-78
2023/06/09 09:24:12;;;;;;;;;;;26.30;98.20;;;;;;8325461;28;19921;-79
2023/06/09 09:28:13;;;;;;;;;;;25.60;99.90;;;;;;8325164;28;19920;-80
2023/06/09 09:32:13;;;;;;;;;;;26.10;98.60;;;;;;8331898;28;20396;-79
2023/06/09 09:36:14;;;;;;;;;;;26.70;98.60;;;;;;8335416;28;20299;-79
2023/06/09 09:40:14;;;;;;;;;;;27.50;97.10;;;;;;8336511;28;19921;-81
2023/06/09 09:44:18;;;;;;;;;;;28.00;97.00;;;;;;8341385;28;20688;-79
2023/06/09 09:48:21;;;;;;;;;;;27.90;93.00;;;;;;8340870;28;19921;-79
2023/06/09 09:52:32;;;;;;;;;;;27.10;96.50;;;;;;8338911;28;19916;-79
2023/06/09 09:56:32;;;;;;;;;;;26.70;95.90;;;;;;8342780;28;19924;-80
2023/06/09 10:00:36;;;;;;;;;;;27.40;96.50;;;;;;8343985;28;19912;-80
2023/06/09 10:04:37;;;;;;;;;;;26.90;92.80;;;;;;8341162;28;19913;-79
2023/06/09 10:08:44;;;;;;;;;;;27.00;93.90;;;;;;8330961;28;19920;-79
2023/06/09 10:12:45;;;;;;;;;;;27.50;95.10;;;;;;8357112;28;19917;-80
2023/06/09 10:16:47;;;;;;;;;;;27.20;94.30;;;;;;8331472;28;19927;-78
2023/06/09 10:20:48;;;;;;;;;;;27.00;93.10;;;;;;8329625;28;19913;-78
2023/06/09 10:24:49;;;;;;;;;;;27.40;95.50;;;;;;8353661;28;19987;-78
2023/06/09 10:28:49;;;;;;;;;;;28.30;94.40;;;;;;8343525;28;20282;-78
2023/06/09 10:32:56;;;;;;;;;;;29.00;91.80;;;;;;8347834;28;19948;-79
2023/06/09 10:36:56;;;;;;;;;;;28.90;93.40;;;;;;8340725;28;19913;-79
2023/06/09 10:41:08;;;;;;;;;;;29.10;93.00;;;;;;8334422;28;19928;-79
2023/06/09 10:45:12;;;;;;;;;;;29.70;91.30;;;;;;8326125;28;19982;-78
2023/06/09 10:49:35;;;;;;;;;;;28.10;87.90;;;;;;8360712;28;19966;-78
2023/06/09 10:53:35;;;;;;;;;;;27.20;90.80;;;;;;8356408;28;19923;-80
2023/06/09 10:57:39;;;;;;;;;;;28.80;87.00;;;;;;8355994;28;19955;-81
2023/06/09 11:01:59;;;;;;;;;;;30.20;85.60;;;;;;8336220;28;19916;-77
2023/06/09 11:06:00;;;;;;;;;;;30.20;85.00;;;;;;8351184;28;19913;-79
2023/06/09 11:10:00;;;;;;;;;;;29.00;84.90;;;;;;8337309;28;19924;-79
2023/06/09 11:14:01;;;;;;;;;;;27.90;87.60;;;;;;8322861;28;20281;-80
2023/06/09 11:18:14;;;;;;;;;;;28.00;89.40;;;;;;8354409;28;19956;-79
2023/06/09 11:22:15;;;;;;;;;;;29.70;85.60;;;;;;8361512;28;19917;-79
2023/06/09 11:26:20;;;;;;;;;;;31.70;81.30;;;;;;8341496;28;19916;-80
2023/06/09 11:30:21;;;;;;;;;;;32.00;72.70;;;;;;8332261;28;19970;-79
2023/06/09 11:34:41;;;;;;;;;;;31.50;79.20;;;;;;8351792;28;19962;-79
2023/06/09 11:38:41;;;;;;;;;;;31.20;73.50;;;;;;8352857;28;19917;-80
2023/06/09 11:42:42;;;;;;;;;;;31.40;72.40;;;;;;8335510;28;19919;-80
2023/06/09 11:46:43;;;;;;;;;;;31.60;74.20;;;;;;8336010;28;19923;-79
2023/06/09 11:50:47;;;;;;;;;;;32.60;70.60;;;;;;8337637;28;19967;-79
2023/06/09 11:54:47;;;;;;;;;;;32.80;69.30;;;;;;8354062;28;19917;-79
2023/06/09 11:58:51;;;;;;;;;;;32.60;67.30;;;;;;8353459;28;20300;-80
2023/06/09 12:02:52;;;;;;;;;;;33.40;61.70;;;;;;8353097;28;20380;-80
2023/06/09 12:06:53;;;;;;;;;;;34.60;59.60;;;;;;8333785;28;19913;-80
2023/06/09 12:10:54;;;;;;;;;;;35.10;57.50;;;;;;8328340;28;19913;-80
2023/06/09 12:14:54;;;;;;;;;;;33.80;59.70;;;;;;8327382;28;19920;-79
2023/06/09 12:18:55;;;;;;;;;;;31.30;63.30;;;;;;8327174;28;19924;-78
2023/06/09 12:22:58;;;;;;;;;;;31.90;62.80;;;;;;8321752;28;20007;-80
2023/06/09 12:27:11;;;;;;;;;;;29.70;69.00;;;;;;8346546;28;19920;-80
2023/06/09 12:31:12;;;;;;;;;;;28.70;70.30;;;;;;8332919;28;20466;-81
2023/06/09 12:35:13;;;;;;;;;;;28.50;70.10;;;;;;8333366;28;19920;-79
2023/06/09 12:39:17;;;;;;;;;;;29.90;67.60;;;;;;8325991;28;19933;-79
2023/06/09 12:43:18;;;;;;;;;;;29.00;67.00;;;;;;8355396;28;20029;-80
2023/06/09 12:47:19;;;;;;;;;;;31.10;68.40;;;;;;8324276;28;20348;-80
2023/06/09 12:51:20;;;;;;;;;;;32.70;61.00;;;;;;8335785;28;19940;-79
2023/06/09 12:55:20;;;;;;;;;;;31.20;63.60;;;;;;8337991;28;19916;-80
2023/06/09 12:59:21;;;;;;;;;;;28.00;70.20;;;;;;8337746;28;20182;-80
2023/06/09 13:03:22;;;;;;;;;;;27.60;71.70;;;;;;8346210;28;19917;-80
2023/06/09 13:07:22;;;;;;;;;;;27.70;70.00;;;;;;8335047;28;19909;-80
2023/06/09 13:11:23;;;;;;;;;;;26.80;73.30;;;;;;8319822;28;20006;-79
2023/06/09 13:15:24;;;;;;;;;;;29.20;66.30;;;;;;8324214;28;19916;-79
2023/06/09 13:19:25;;;;;;;;;;;33.60;57.00;;;;;;8332169;28;20029;-79
2023/06/09 13:23:26;;;;;;;;;;;34.80;56.80;;;;;;8332221;28;19958;-80
2023/06/09 13:27:26;;;;;;;;;;;35.90;53.80;;;;;;8325574;28;19921;-80
2023/06/09 13:31:27;;;;;;;;;;;33.00;56.20;;;;;;8320848;28;19955;-80
2023/06/09 13:35:28;;;;;;;;;;;30.30;60.00;;;;;;8330509;28;19951;-80
2023/06/09 13:39:29;;;;;;;;;;;31.50;60.10;;;;;;8333809;28;20042;-79
2023/06/09 13:43:29;;;;;;;;;;;33.50;55.90;;;;;;8335511;28;20673;-79
2023/06/09 13:47:30;;;;;;;;;;;34.50;54.90;;;;;;8335252;28;19917;-78
2023/06/09 13:51:31;;;;;;;;;;;36.60;51.60;;;;;;8334032;28;19959;-80
2023/06/09 13:55:31;;;;;;;;;;;36.40;52.30;;;;;;8325829;28;19913;-78
2023/06/09 13:59:32;;;;;;;;;;;36.20;49.40;;;;;;8330604;28;20414;-79
2023/06/09 14:03:32;;;;;;;;;;;35.30;51.90;;;;;;8347527;28;19947;-78
2023/06/09 14:07:33;;;;;;;;;;;35.00;50.60;;;;;;8335449;28;19913;-79
2023/06/09 14:11:34;;;;;;;;;;;35.50;51.10;;;;;;8336259;28;19955;-79
2023/06/09 14:15:35;;;;;;;;;;;34.90;52.70;;;;;;8329172;28;20400;-78
2023/06/09 14:19:35;;;;;;;;;;;33.90;52.50;;;;;;8328375;28;19917;-79
2023/06/09 14:23:38;;;;;;;;;;;34.10;51.80;;;;;;8335563;28;19928;-81
2023/06/09 14:27:39;;;;;;;;;;;35.50;50.90;;;;;;8333505;28;19913;-79
2023/06/09 14:31:39;;;;;;;;;;;35.40;48.70;;;;;;8358721;28;20544;-80
2023/06/09 14:35:43;;;;;;;;;;;33.20;52.50;;;;;;8338197;28;19908;-80
2023/06/09 14:39:44;;;;;;;;;;;32.50;53.80;;;;;;8359966;28;19967;-78
2023/06/09 14:43:44;;;;;;;;;;;30.00;56.80;;;;;;8341111;28;19912;-80
2023/06/09 14:47:48;;;;;;;;;;;28.80;61.00;;;;;;8344885;28;19909;-80
2023/06/09 14:51:49;;;;;;;;;;;31.30;57.20;;;;;;8355344;28;19971;-79
2023/06/09 14:55:50;;;;;;;;;;;33.50;53.10;;;;;;8343155;28;19916;-81
2023/06/09 14:59:50;;;;;;;;;;;35.90;51.50;;;;;;8335504;28;19966;-80
2023/06/09 15:03:53;;;;;;;;;;;38.00;49.50;;;;;;8343517;28;19913;-79
2023/06/09 15:07:57;;;;;;;;;;;34.30;50.40;;;;;;8338490;28;19915;-78
2023/06/09 15:11:57;;;;;;;;;;;29.20;59.00;;;;;;8359818;28;20428;-79
2023/06/09 15:15:58;;;;;;;;;;;26.80;66.20;;;;;;8353994;28;19919;-79
2023/06/09 15:19:58;;;;;;;;;;;26.20;69.10;;;;;;8324475;28;19972;-80
2023/06/09 15:23:59;;;;;;;;;;;29.60;61.90;;;;;;8340520;28;20062;-78
2023/06/09 15:28:00;;;;;;;;;;;30.90;56.70;;;;;;8336069;28;19919;-79
2023/06/09 15:32:01;;;;;;;;;;;30.90;57.20;;;;;;8345958;28;20547;-80
2023/06/09 15:36:01;;;;;;;;;;;31.30;57.50;;;;;;8334720;28;19917;-80
2023/06/09 15:40:02;;;;;;;;;;;32.10;56.20;;;;;;8335090;28;19979;-77
2023/06/09 15:44:03;;;;;;;;;;;30.20;58.30;;;;;;8326317;28;19964;-78
2023/06/09 15:48:03;;;;;;;;;;;27.60;64.90;;;;;;8331222;28;20606;-80
2023/06/09 15:52:04;;;;;;;;;;;26.20;68.60;;;;;;8358152;28;19920;-79
2023/06/09 15:56:05;;;;;;;;;;;25.90;70.80;;;;;;8336579;28;19943;-79
2023/06/09 16:00:06;;;;;;;;;;;26.00;70.30;;;;;;8332884;28;19920;-79
2023/06/09 16:04:06;;;;;;;;;;;26.10;70.90;;;;;;8327766;28;19913;-79
2023/06/09 16:08:09;;;;;;;;;;;26.40;71.30;;;;;;8327620;28;19913;-78
2023/06/09 16:12:10;;;;;;;;;;;26.70;68.30;;;;;;8331282;28;19924;-78
2023/06/09 16:16:10;;;;;;;;;;;26.00;69.90;;;;;;8334404;28;19917;-77
2023/06/09 16:20:11;;;;;;;;;;;25.70;69.80;;;;;;8342926;28;19932;-78
2023/06/09 16:24:11;;;;;;;;;;;25.30;72.30;;;;;;8328610;28;19975;-79
2023/06/09 16:28:12;;;;;;;;;;;25.30;73.60;;;;;;8338215;28;19952;-78
2023/06/09 16:32:12;;;;;;;;;;;25.70;73.70;;;;;;8324637;28;19924;-79
2023/06/09 16:36:13;;;;;;;;;;;25.80;70.90;;;;;;8324883;28;20428;-79
2023/06/09 16:40:13;;;;;;;;;;;25.70;74.50;;;;;;8328428;28;20026;-79
2023/06/09 16:44:14;;;;;;;;;;;26.00;70.70;;;;;;8337514;28;19928;-80
2023/06/09 16:48:14;;;;;;;;;;;26.00;72.70;;;;;;8335561;28;19948;-78
2023/06/09 16:52:15;;;;;;;;;;;25.90;71.20;;;;;;8338523;28;19919;-79
2023/06/09 16:56:15;;;;;;;;;;;25.50;73.20;;;;;;8335279;28;19913;-78
2023/06/09 17:00:17;;;;;;;;;;;24.90;73.20;;;;;;8335683;28;19927;-79
2023/06/09 17:04:17;;;;;;;;;;;24.50;73.90;;;;;;8328572;28;20359;-78
2023/06/09 17:08:18;;;;;;;;;;;24.40;74.60;;;;;;8330926;28;19913;-79
2023/06/09 17:12:18;;;;;;;;;;;24.20;75.50;;;;;;8333986;28;19913;-78
2023/06/09 17:16:19;;;;;;;;;;;24.20;75.50;;;;;;8341715;28;19952;-79
2023/06/09 17:20:20;;;;;;;;;;;24.10;75.90;;;;;;8332319;28;19921;-78
2023/06/09 17:24:20;;;;;;;;;;;24.10;76.80;;;;;;8332409;28;19933;-78
2023/06/09 17:28:23;;;;;;;;;;;24.10;75.30;;;;;;8329309;28;20116;-78
2023/06/09 17:32:23;;;;;;;;;;;24.00;74.80;;;;;;8345683;28;20527;-78
2023/06/09 17:36:23;;;;;;;;;;;23.90;74.90;;;;;;8350658;28;19916;-78
2023/06/09 17:40:24;;;;;;;;;;;23.80;74.80;;;;;;8343062;28;19932;-78
2023/06/09 17:44:24;;;;;;;;;;;23.70;75.30;;;;;;8346278;28;19913;-77
2023/06/09 17:48:25;;;;;;;;;;;23.60;76.10;;;;;;8344555;28;19920;-78
2023/06/09 17:52:25;;;;;;;;;;;23.60;77.70;;;;;;8346546;28;19925;-78
2023/06/09 17:56:26;;;;;;;;;;;23.60;76.50;;;;;;8324813;28;19995;-79
2023/06/09 18:00:27;;;;;;;;;;;23.40;77.20;;;;;;8322037;28;20396;-79
2023/06/09 18:04:27;;;;;;;;;;;23.30;78.30;;;;;;8355902;28;20355;-78
2023/06/09 18:08:28;;;;;;;;;;;23.10;79.70;;;;;;8357464;28;19920;-77
2023/06/09 18:12:28;;;;;;;;;;;23.10;79.10;;;;;;8360009;28;19967;-79
2023/06/09 18:16:29;;;;;;;;;;;22.90;80.00;;;;;;8356531;28;20514;-78
2023/06/09 18:20:30;;;;;;;;;;;22.70;79.70;;;;;;8347140;28;20447;-79
2023/06/09 18:24:31;;;;;;;;;;;22.40;81.30;;;;;;8348743;28;20684;-79
2023/06/09 18:28:31;;;;;;;;;;;22.10;82.10;;;;;;8337273;28;19924;-81
2023/06/09 18:32:32;;;;;;;;;;;21.90;84.10;;;;;;8340894;28;19924;-79
2023/06/09 18:36:32;;;;;;;;;;;21.80;82.00;;;;;;8335061;28;20568;-79
2023/06/09 18:40:33;;;;;;;;;;;21.70;83.20;;;;;;8336644;28;19967;-80
2023/06/09 18:44:33;;;;;;;;;;;21.40;83.60;;;;;;8340091;28;19913;-79
2023/06/09 18:48:34;;;;;;;;;;;21.20;84.00;;;;;;8359205;28;19909;-79
2023/06/09 18:52:37;;;;;;;;;;;21.00;82.80;;;;;;8343683;28;19913;-78
2023/06/09 18:56:37;;;;;;;;;;;20.90;84.40;;;;;;8343303;28;19924;-78
2023/06/09 19:00:37;;;;;;;;;;;20.60;85.30;;;;;;8352572;28;20404;-79
2023/06/09 19:04:38;;;;;;;;;;;20.40;85.50;;;;;;8344720;28;19909;-80
2023/06/09 19:08:38;;;;;;;;;;;20.20;87.10;;;;;;8359508;28;19978;-79
2023/06/09 19:12:39;;;;;;;;;;;19.80;87.10;;;;;;8337541;28;19995;-80
2023/06/09 19:16:39;;;;;;;;;;;19.60;90.20;;;;;;8335368;28;19913;-79
2023/06/09 19:20:42;;;;;;;;;;;19.20;90.80;;;;;;8338732;28;19933;-80
2023/06/09 19:24:43;;;;;;;;;;;18.90;91.20;;;;;;8338045;28;19923;-79
2023/06/09 19:28:44;;;;;;;;;;;18.90;91.60;;;;;;8338988;28;19909;-79
2023/06/09 19:32:44;;;;;;;;;;;18.50;92.70;;;;;;8340465;28;19916;-79
2023/06/09 19:36:45;;;;;;;;;;;18.00;92.70;;;;;;8355982;28;19913;-79
2023/06/09 19:40:45;;;;;;;;;;;17.90;93.80;;;;;;8340326;28;19914;-79
2023/06/09 19:44:46;;;;;;;;;;;17.60;94.80;;;;;;8334771;28;19948;-80
2023/06/09 19:48:47;;;;;;;;;;;17.50;95.80;;;;;;8359677;28;19909;-79
2023/06/09 19:52:47;;;;;;;;;;;17.00;96.60;;;;;;8351053;28;19970;-79
2023/06/09 19:56:48;;;;;;;;;;;17.00;97.10;;;;;;8360319;28;19912;-80
2023/06/09 20:00:48;;;;;;;;;;;16.50;98.20;;;;;;8334853;28;20107;-79
2023/06/09 20:04:49;;;;;;;;;;;16.50;99.20;;;;;;8348094;28;19971;-79
2023/06/09 20:08:49;;;;;;;;;;;16.50;99.90;;;;;;8342061;28;20409;-79
2023/06/09 20:12:50;;;;;;;;;;;16.30;99.90;;;;;;8348058;28;20323;-80
2023/06/09 20:16:50;;;;;;;;;;;16.00;99.90;;;;;;8352496;28;19913;-79
2023/06/09 20:20:51;;;;;;;;;;;15.80;99.90;;;;;;8358407;28;20019;-79
2023/06/09 20:24:51;;;;;;;;;;;15.90;99.90;;;;;;8356200;28;19919;-79
2023/06/09 20:28:52;;;;;;;;;;;15.70;99.90;;;;;;8353067;28;19917;-78
2023/06/09 20:32:52;;;;;;;;;;;15.60;99.90;;;;;;8335400;28;19909;-79
2023/06/09 20:36:53;;;;;;;;;;;15.40;99.90;;;;;;8352732;28;20003;-79
2023/06/09 20:40:53;;;;;;;;;;;15.20;99.90;;;;;;8354698;28;20027;-79
2023/06/09 20:44:55;;;;;;;;;;;14.90;99.90;;;;;;8339460;28;19909;-80
2023/06/09 20:48:56;;;;;;;;;;;14.90;99.90;;;;;;8340907;28;20295;-78
2023/06/09 20:52:57;;;;;;;;;;;15.50;99.90;;;;;;8347869;28;19920;-79
2023/06/09 20:56:57;;;;;;;;;;;14.90;99.90;;;;;;8359475;28;19916;-78
2023/06/09 21:00:59;;;;;;;;;;;14.70;99.90;;;;;;8337121;28;19909;-79
2023/06/09 21:04:59;;;;;;;;;;;14.60;99.90;;;;;;8340263;28;19951;-78
2023/06/09 21:09:00;;;;;;;;;;;14.60;99.90;;;;;;8354629;28;19909;-79
2023/06/09 21:13:01;;;;;;;;;;;14.50;99.90;;;;;;8329327;28;19921;-80
2023/06/09 21:17:01;;;;;;;;;;;14.40;99.90;;;;;;8349837;28;20599;-80
2023/06/09 21:21:02;;;;;;;;;;;14.50;99.90;;;;;;8327287;28;19909;-79
2023/06/09 21:25:03;;;;;;;;;;;14.40;99.90;;;;;;8353380;28;19940;-79
2023/06/09 21:29:03;;;;;;;;;;;14.40;99.90;;;;;;8350026;28;20003;-80
2023/06/09 21:33:03;;;;;;;;;;;14.30;99.90;;;;;;8349471;28;19909;-79
2023/06/09 21:37:04;;;;;;;;;;;14.30;99.90;;;;;;8332083;28;19916;-78
2023/06/09 21:41:04;;;;;;;;;;;14.60;99.90;;;;;;8349157;28;19917;-80
2023/06/09 21:45:05;;;;;;;;;;;14.20;99.90;;;;;;8350988;28;19913;-78
2023/06/09 21:49:06;;;;;;;;;;;14.20;99.90;;;;;;8332470;28;19920;-79
2023/06/09 21:53:06;;;;;;;;;;;14.30;99.90;;;;;;8323224;28;20647;-79
2023/06/09 21:57:07;;;;;;;;;;;14.30;99.90;;;;;;8338598;28;20494;-80
2023/06/09 22:01:07;;;;;;;;;;;14.30;99.90;;;;;;8341233;28;20270;-79
2023/06/09 22:05:08;;;;;;;;;;;14.30;99.90;;;;;;8325962;28;19920;-79
2023/06/09 22:09:08;;;;;;;;;;;14.20;99.90;;;;;;8350708;28;19909;-79
2023/06/09 22:13:09;;;;;;;;;;;14.20;99.90;;;;;;8332437;28;19910;-79
2023/06/09 22:17:09;;;;;;;;;;;14.10;99.90;;;;;;8350484;28;19916;-79
2023/06/09 22:21:12;;;;;;;;;;;14.00;99.90;;;;;;8337998;28;19928;-79
2023/06/09 22:25:12;;;;;;;;;;;14.10;99.90;;;;;;8355897;28;19915;-78
2023/06/09 22:29:13;;;;;;;;;;;14.00;99.90;;;;;;8351829;28;20321;-79
2023/06/09 22:33:13;;;;;;;;;;;14.10;99.90;;;;;;8347801;28;20308;-79
2023/06/09 22:37:14;;;;;;;;;;;14.10;99.90;;;;;;8351490;28;19914;-79
2023/06/09 22:41:15;;;;;;;;;;;14.20;99.90;;;;;;8350040;28;19916;-79
2023/06/09 22:45:15;;;;;;;;;;;14.40;99.90;;;;;;8323380;28;19948;-79
2023/06/09 22:49:20;;;;;;;;;;;14.60;99.90;;;;;;8337186;28;20430;-78
2023/06/09 22:53:23;;;;;;;;;;;14.50;99.90;;;;;;8349112;28;19908;-79
2023/06/09 22:57:24;;;;;;;;;;;14.60;99.90;;;;;;8347701;28;19916;-79
2023/06/09 23:01:26;;;;;;;;;;;14.50;99.90;;;;;;8344935;28;19920;-79
2023/06/09 23:05:34;;;;;;;;;;;14.50;99.90;;;;;;8337384;28;19948;-79
2023/06/09 23:09:34;;;;;;;;;;;14.30;99.90;;;;;;8330981;28;19932;-79
2023/06/09 23:13:35;;;;;;;;;;;14.40;99.90;;;;;;8333658;28;19913;-79
2023/06/09 23:17:37;;;;;;;;;;;14.30;99.90;;;;;;8345534;28;19917;-80
2023/06/09 23:21:38;;;;;;;;;;;14.20;99.90;;;;;;8362148;28;19917;-79
2023/06/09 23:25:38;;;;;;;;;;;14.10;99.90;;;;;;8329137;28;19955;-80